sensor_id;sensor_type;location;lat;lon;timestamp;pressure;altitude;pressure_sealevel;temperature;humidity
20696;BME280;10507;52.754;13.040;2023-04-20T00:01:46;101651.94;;;5.67;100.00
20696;BME280;10507;52.754;13.040;2023-04-20T00:04:14;101650.16;;;5.69;100.00
20696;BME280;10507;52.754;13.040;2023-04-20T00:06:44;101632.59;;;5.63;100.00
20696;BME280;10507;52.754;13.040;2023-04-20T00:09:12;101634.25;;;5.69;100.00
20696;BME280;10507;52.754;13.040;2023-04-20T00:11:45;101626.38;;;5.66;100.00
20696;BME280;10507;52.754;13.040;2023-04-20T00:14:22;101629.03;;;5.65;100.00
20696;BME280;10507;52.754;13.040;2023-04-20T00:16:51;101631.66;;;5.65;100.00
20696;BME280;10507;52.754;13.040;2023-04-20T00:19:19;101621.13;;;5.63;100.00
20696;BME280;10507;52.754;13.040;2023-04-20T00:21:47;101626.38;;;5.66;100.00
20696;BME280;10507;52.754;13.040;2023-04-20T00:24:15;101618.44;;;5.65;100.00
20696;BME280;10507;52.754;13.040;2023-04-20T00:26:43;101612.28;;;5.62;100.00
20696;BME280;10507;52.754;13.040;2023-04-20T00:29:11;101613.22;;;5.58;100.00
20696;BME280;10507;52.754;13.040;2023-04-20T00:31:39;101629.91;;;5.65;100.00
20696;BME280;10507;52.754;13.040;2023-04-20T00:34:09;101636.03;;;5.67;100.00
20696;BME280;10507;52.754;13.040;2023-04-20T00:36:37;101630.81;;;5.64;100.00
20696;BME280;10507;52.754;13.040;2023-04-20T00:39:05;101632.59;;;5.60;100.00
20696;BME280;10507;52.754;13.040;2023-04-20T00:41:32;101630.75;;;5.67;100.00
20696;BME280;10507;52.754;13.040;2023-04-20T00:44:00;101623.66;;;5.69;100.00
20696;BME280;10507;52.754;13.040;2023-04-20T00:46:28;101622.78;;;5.70;100.00
20696;BME280;10507;52.754;13.040;2023-04-20T00:48:56;101610.34;;;5.74;100.00
20696;BME280;10507;52.754;13.040;2023-04-20T00:51:26;101592.75;;;5.70;100.00
20696;BME280;10507;52.754;13.040;2023-04-20T00:53:55;101587.47;;;5.70;100.00
20696;BME280;10507;52.754;13.040;2023-04-20T00:56:23;101593.66;;;5.67;100.00
20696;BME280;10507;52.754;13.040;2023-04-20T00:58:51;101624.44;;;5.76;100.00
20696;BME280;10507;52.754;13.040;2023-04-20T01:01:19;101601.50;;;5.75;100.00
20696;BME280;10507;52.754;13.040;2023-04-20T01:03:47;101602.38;;;5.74;100.00
20696;BME280;10507;52.754;13.040;2023-04-20T01:06:15;101613.84;;;5.76;100.00
20696;BME280;10507;52.754;13.040;2023-04-20T01:08:46;101589.16;;;5.74;100.00
20696;BME280;10507;52.754;13.040;2023-04-20T01:11:14;101570.66;;;5.69;100.00
20696;BME280;10507;52.754;13.040;2023-04-20T01:13:42;101583.84;;;5.74;100.00
20696;BME280;10507;52.754;13.040;2023-04-20T01:16:11;101598.88;;;5.73;100.00
20696;BME280;10507;52.754;13.040;2023-04-20T01:18:41;101600.66;;;5.74;100.00
20696;BME280;10507;52.754;13.040;2023-04-20T01:21:10;101606.81;;;5.76;100.00
20696;BME280;10507;52.754;13.040;2023-04-20T01:23:39;101614.69;;;5.78;100.00
20696;BME280;10507;52.754;13.040;2023-04-20T01:26:08;101600.66;;;5.71;100.00
20696;BME280;10507;52.754;13.040;2023-04-20T01:28:36;101598.00;;;5.71;100.00
20696;BME280;10507;52.754;13.040;2023-04-20T01:31:06;101622.72;;;5.73;100.00
20696;BME280;10507;52.754;13.040;2023-04-20T01:33:34;101620.00;;;5.79;100.00
20696;BME280;10507;52.754;13.040;2023-04-20T01:36:03;101626.13;;;5.83;100.00
20696;BME280;10507;52.754;13.040;2023-04-20T01:38:32;101623.50;;;5.81;100.00
20696;BME280;10507;52.754;13.040;2023-04-20T01:41:02;101617.28;;;5.82;100.00
20696;BME280;10507;52.754;13.040;2023-04-20T01:43:31;101634.88;;;5.90;100.00
20696;BME280;10507;52.754;13.040;2023-04-20T01:46:00;101632.19;;;5.91;100.00
20696;BME280;10507;52.754;13.040;2023-04-20T01:48:28;101604.03;;;5.82;100.00
20696;BME280;10507;52.754;13.040;2023-04-20T01:50:56;101598.59;;;5.92;100.00
20696;BME280;10507;52.754;13.040;2023-04-20T01:53:24;101588.97;;;5.88;100.00
20696;BME280;10507;52.754;13.040;2023-04-20T01:55:53;101567.84;;;5.81;100.00
20696;BME280;10507;52.754;13.040;2023-04-20T01:58:23;101566.00;;;5.85;100.00
20696;BME280;10507;52.754;13.040;2023-04-20T02:00:51;101581.88;;;5.88;100.00
20696;BME280;10507;52.754;13.040;2023-04-20T02:03:19;101570.44;;;5.84;100.00
20696;BME280;10507;52.754;13.040;2023-04-20T02:05:48;101573.16;;;5.81;100.00
20696;BME280;10507;52.754;13.040;2023-04-20T02:08:16;101559.94;;;5.78;100.00
20696;BME280;10507;52.754;13.040;2023-04-20T02:10:44;101567.84;;;5.80;100.00
20696;BME280;10507;52.754;13.040;2023-04-20T02:13:12;101554.63;;;5.78;100.00
20696;BME280;10507;52.754;13.040;2023-04-20T02:15:42;101584.59;;;5.83;100.00
20696;BME280;10507;52.754;13.040;2023-04-20T02:18:10;101579.31;;;5.82;100.00
20696;BME280;10507;52.754;13.040;2023-04-20T02:20:38;101602.25;;;5.84;100.00
20696;BME280;10507;52.754;13.040;2023-04-20T02:23:06;101603.09;;;5.88;100.00
20696;BME280;10507;52.754;13.040;2023-04-20T02:25:34;101580.16;;;5.86;100.00
20696;BME280;10507;52.754;13.040;2023-04-20T02:28:02;101577.59;;;5.79;100.00
20696;BME280;10507;52.754;13.040;2023-04-20T02:30:30;101615.47;;;5.88;100.00
20696;BME280;10507;52.754;13.040;2023-04-20T02:32:59;101600.50;;;5.83;100.00
20696;BME280;10507;52.754;13.040;2023-04-20T02:35:28;101600.50;;;5.83;100.00
20696;BME280;10507;52.754;13.040;2023-04-20T02:37:56;101607.59;;;5.81;100.00
20696;BME280;10507;52.754;13.040;2023-04-20T02:40:24;101605.81;;;5.80;100.00
20696;BME280;10507;52.754;13.040;2023-04-20T02:42:52;101590.03;;;5.74;100.00
20696;BME280;10507;52.754;13.040;2023-04-20T02:45:20;101629.72;;;5.79;100.00
20696;BME280;10507;52.754;13.040;2023-04-20T02:47:48;101642.91;;;5.83;100.00
20696;BME280;10507;52.754;13.040;2023-04-20T02:50:18;101641.19;;;5.79;100.00
20696;BME280;10507;52.754;13.040;2023-04-20T02:52:46;101644.78;;;5.75;100.00
20696;BME280;10507;52.754;13.040;2023-04-20T02:55:14;101655.44;;;5.72;100.00
20696;BME280;10507;52.754;13.040;2023-04-20T02:57:42;101686.25;;;5.78;100.00
20696;BME280;10507;52.754;13.040;2023-04-20T03:00:11;101658.94;;;5.74;100.00
20696;BME280;10507;52.754;13.040;2023-04-20T03:02:39;101670.41;;;5.73;100.00
20696;BME280;10507;52.754;13.040;2023-04-20T03:05:07;101671.31;;;5.72;100.00
20696;BME280;10507;52.754;13.040;2023-04-20T03:07:37;101705.72;;;5.75;100.00
20696;BME280;10507;52.754;13.040;2023-04-20T03:10:06;101694.25;;;5.73;100.00
20696;BME280;10507;52.754;13.040;2023-04-20T03:12:34;101715.38;;;5.79;100.00
20696;BME280;10507;52.754;13.040;2023-04-20T03:15:02;101715.38;;;5.79;100.00
20696;BME280;10507;52.754;13.040;2023-04-20T03:17:31;101722.41;;;5.83;100.00
20696;BME280;10507;52.754;13.040;2023-04-20T03:19:59;101719.72;;;5.85;100.00
20696;BME280;10507;52.754;13.040;2023-04-20T03:22:27;101718.84;;;5.84;100.00
20696;BME280;10507;52.754;13.040;2023-04-20T03:24:56;101699.50;;;5.79;100.00
20696;BME280;10507;52.754;13.040;2023-04-20T03:27:24;101729.44;;;5.88;100.00
20696;BME280;10507;52.754;13.040;2023-04-20T03:29:52;101725.00;;;5.85;100.00
20696;BME280;10507;52.754;13.040;2023-04-20T03:32:20;101721.56;;;5.78;100.00
20696;BME280;10507;52.754;13.040;2023-04-20T03:34:49;101723.28;;;5.82;100.00
20696;BME280;10507;52.754;13.040;2023-04-20T03:37:18;101722.38;;;5.85;100.00
20696;BME280;10507;52.754;13.040;2023-04-20T03:39:46;101719.78;;;5.80;100.00
20696;BME280;10507;52.754;13.040;2023-04-20T03:42:16;101731.22;;;5.84;100.00
20696;BME280;10507;52.754;13.040;2023-04-20T03:44:45;101720.63;;;5.82;100.00
20696;BME280;10507;52.754;13.040;2023-04-20T03:47:13;101718.91;;;5.81;100.00
20696;BME280;10507;52.754;13.040;2023-04-20T03:49:41;101726.91;;;5.77;100.00
20696;BME280;10507;52.754;13.040;2023-04-20T03:52:09;101758.66;;;5.81;100.00
20696;BME280;10507;52.754;13.040;2023-04-20T03:54:36;101767.41;;;5.87;100.00
20696;BME280;10507;52.754;13.040;2023-04-20T03:57:04;101762.09;;;5.88;100.00
20696;BME280;10507;52.754;13.040;2023-04-20T03:59:34;101769.13;;;5.91;100.00
20696;BME280;10507;52.754;13.040;2023-04-20T04:02:01;101773.53;;;5.95;100.00
20696;BME280;10507;52.754;13.040;2023-04-20T04:04:31;101774.41;;;5.95;100.00
20696;BME280;10507;52.754;13.040;2023-04-20T04:06:59;101770.81;;;6.01;100.00
20696;BME280;10507;52.754;13.040;2023-04-20T04:09:27;101761.91;;;6.05;100.00
20696;BME280;10507;52.754;13.040;2023-04-20T04:11:55;101746.91;;;6.04;100.00
20696;BME280;10507;52.754;13.040;2023-04-20T04:14:24;101745.09;;;6.06;100.00
20696;BME280;10507;52.754;13.040;2023-04-20T04:16:53;101732.66;;;6.11;100.00
20696;BME280;10507;52.754;13.040;2023-04-20T04:19:22;101711.50;;;6.08;100.00
20696;BME280;10507;52.754;13.040;2023-04-20T04:21:50;101708.78;;;6.11;100.00
20696;BME280;10507;52.754;13.040;2023-04-20T04:24:18;101707.00;;;6.15;100.00
20696;BME280;10507;52.754;13.040;2023-04-20T04:26:47;101676.03;;;6.15;100.00
20696;BME280;10507;52.754;13.040;2023-04-20T04:29:15;101690.09;;;6.20;100.00
20696;BME280;10507;52.754;13.040;2023-04-20T04:31:43;101684.78;;;6.20;100.00
20696;BME280;10507;52.754;13.040;2023-04-20T04:34:13;101673.31;;;6.21;100.00
20696;BME280;10507;52.754;13.040;2023-04-20T04:36:41;101680.28;;;6.27;100.00
20696;BME280;10507;52.754;13.040;2023-04-20T04:39:09;101653.81;;;6.24;100.00
20696;BME280;10507;52.754;13.040;2023-04-20T04:41:40;101636.25;;;6.17;100.00
20696;BME280;10507;52.754;13.040;2023-04-20T04:44:08;101652.97;;;6.20;100.00
20696;BME280;10507;52.754;13.040;2023-04-20T04:46:36;101659.97;;;6.26;100.00
20696;BME280;10507;52.754;13.040;2023-04-20T04:49:04;101645.00;;;6.23;100.00
20696;BME280;10507;52.754;13.040;2023-04-20T04:51:34;101676.69;;;6.31;100.00
20696;BME280;10507;52.754;13.040;2023-04-20T04:54:03;101671.34;;;6.33;100.00
20696;BME280;10507;52.754;13.040;2023-04-20T04:56:31;101673.06;;;6.35;100.00
20696;BME280;10507;52.754;13.040;2023-04-20T04:58:59;101670.34;;;6.40;100.00
20696;BME280;10507;52.754;13.040;2023-04-20T05:01:27;101663.19;;;6.45;100.00
20696;BME280;10507;52.754;13.040;2023-04-20T05:03:54;101643.88;;;6.37;100.00
20696;BME280;10507;52.754;13.040;2023-04-20T05:06:23;101671.13;;;6.47;100.00
20696;BME280;10507;52.754;13.040;2023-04-20T05:08:52;101647.28;;;6.45;100.00
20696;BME280;10507;52.754;13.040;2023-04-20T05:11:20;101641.97;;;6.45;100.00
20696;BME280;10507;52.754;13.040;2023-04-20T05:13:48;101649.03;;;6.46;100.00
20696;BME280;10507;52.754;13.040;2023-04-20T05:16:17;101657.81;;;6.50;100.00
20696;BME280;10507;52.754;13.040;2023-04-20T05:18:45;101635.78;;;6.44;100.00
20696;BME280;10507;52.754;13.040;2023-04-20T05:21:13;101650.72;;;6.50;100.00
20696;BME280;10507;52.754;13.040;2023-04-20T05:23:41;101678.00;;;6.57;100.00
20696;BME280;10507;52.754;13.040;2023-04-20T05:26:11;101672.69;;;6.58;100.00
20696;BME280;10507;52.754;13.040;2023-04-20T05:28:38;101654.19;;;6.55;100.00
20696;BME280;10507;52.754;13.040;2023-04-20T05:31:06;101657.69;;;6.57;100.00
20696;BME280;10507;52.754;13.040;2023-04-20T05:33:34;101678.78;;;6.65;100.00
20696;BME280;10507;52.754;13.040;2023-04-20T05:36:02;101694.53;;;6.74;100.00
20696;BME280;10507;52.754;13.040;2023-04-20T05:38:30;101667.91;;;6.79;100.00
20696;BME280;10507;52.754;13.040;2023-04-20T05:40:58;101616.03;;;6.62;100.00
20696;BME280;10507;52.754;13.040;2023-04-20T05:43:27;101624.84;;;6.63;100.00
20696;BME280;10507;52.754;13.040;2023-04-20T05:45:55;101638.97;;;6.65;100.00
20696;BME280;10507;52.754;13.040;2023-04-20T05:48:23;101656.59;;;6.68;100.00
20696;BME280;10507;52.754;13.040;2023-04-20T05:50:55;101676.00;;;6.73;100.00
20696;BME280;10507;52.754;13.040;2023-04-20T05:53:23;101668.91;;;6.73;100.00
20696;BME280;10507;52.754;13.040;2023-04-20T05:55:51;101669.69;;;6.80;100.00
20696;BME280;10507;52.754;13.040;2023-04-20T05:58:19;101665.31;;;6.77;100.00
20696;BME280;10507;52.754;13.040;2023-04-20T06:00:48;101657.34;;;6.76;100.00
20696;BME280;10507;52.754;13.040;2023-04-20T06:03:16;101659.94;;;6.79;100.00
20696;BME280;10507;52.754;13.040;2023-04-20T06:05:44;101674.84;;;6.86;100.00
20696;BME280;10507;52.754;13.040;2023-04-20T06:08:12;101664.19;;;6.89;100.00
20696;BME280;10507;52.754;13.040;2023-04-20T06:10:40;101690.56;;;6.98;100.00
20696;BME280;10507;52.754;13.040;2023-04-20T06:13:08;101701.03;;;7.07;100.00
20696;BME280;10507;52.754;13.040;2023-04-20T06:15:36;101710.63;;;7.15;100.00
20696;BME280;10507;52.754;13.040;2023-04-20T06:18:05;101686.75;;;7.13;100.00
20696;BME280;10507;52.754;13.040;2023-04-20T06:20:33;101655.00;;;7.08;100.00
20696;BME280;10507;52.754;13.040;2023-04-20T06:23:01;101677.78;;;7.19;100.00
20696;BME280;10507;52.754;13.040;2023-04-20T06:25:28;101679.47;;;7.23;100.00
20696;BME280;10507;52.754;13.040;2023-04-20T06:27:56;101674.94;;;7.29;100.00
20696;BME280;10507;52.754;13.040;2023-04-20T06:30:24;101625.41;;;7.25;100.00
20696;BME280;10507;52.754;13.040;2023-04-20T06:32:52;101652.81;;;7.29;100.00
20696;BME280;10507;52.754;13.040;2023-04-20T06:35:21;101658.03;;;7.34;100.00
20696;BME280;10507;52.754;13.040;2023-04-20T06:37:49;101678.22;;;7.42;100.00
20696;BME280;10507;52.754;13.040;2023-04-20T06:40:17;101676.25;;;7.50;100.00
20696;BME280;10507;52.754;13.040;2023-04-20T06:42:45;101668.28;;;7.50;100.00
20696;BME280;10507;52.754;13.040;2023-04-20T06:45:13;101668.09;;;7.60;100.00
20696;BME280;10507;52.754;13.040;2023-04-20T06:47:41;101650.31;;;7.63;100.00
20696;BME280;10507;52.754;13.040;2023-04-20T06:50:10;101666.03;;;7.74;100.00
20696;BME280;10507;52.754;13.040;2023-04-20T06:52:39;101679.88;;;7.88;100.00
20696;BME280;10507;52.754;13.040;2023-04-20T06:55:08;101664.69;;;7.94;100.00
20696;BME280;10507;52.754;13.040;2023-04-20T06:57:36;101641.38;;;8.05;100.00
20696;BME280;10507;52.754;13.040;2023-04-20T07:00:06;101634.25;;;8.07;100.00
20696;BME280;10507;52.754;13.040;2023-04-20T07:02:42;101641.09;;;8.17;100.00
20696;BME280;10507;52.754;13.040;2023-04-20T07:05:11;101623.41;;;8.16;100.00
20696;BME280;10507;52.754;13.040;2023-04-20T07:07:40;101597.63;;;8.18;100.00
20696;BME280;10507;52.754;13.040;2023-04-20T07:10:09;101517.47;;;7.98;100.00
20696;BME280;10507;52.754;13.040;2023-04-20T07:12:38;101525.53;;;7.95;100.00
20696;BME280;10507;52.754;13.040;2023-04-20T07:15:09;101603.91;;;8.16;100.00
20696;BME280;10507;52.754;13.040;2023-04-20T07:17:37;101571.09;;;8.15;100.00
20696;BME280;10507;52.754;13.040;2023-04-20T07:20:06;101553.41;;;8.14;100.00
20696;BME280;10507;52.754;13.040;2023-04-20T07:22:35;101569.38;;;8.14;100.00
20696;BME280;10507;52.754;13.040;2023-04-20T07:25:06;101530.53;;;8.07;100.00
20696;BME280;10507;52.754;13.040;2023-04-20T07:27:35;101571.00;;;8.18;100.00
20696;BME280;10507;52.754;13.040;2023-04-20T07:30:04;101624.56;;;8.42;100.00
20696;BME280;10507;52.754;13.040;2023-04-20T07:32:32;101609.53;;;8.39;100.00
20696;BME280;10507;52.754;13.040;2023-04-20T07:35:01;101546.03;;;8.25;100.00
20696;BME280;10507;52.754;13.040;2023-04-20T07:37:30;101592.72;;;8.37;100.00
20696;BME280;10507;52.754;13.040;2023-04-20T07:39:58;101590.06;;;8.37;100.00
20696;BME280;10507;52.754;13.040;2023-04-20T07:42:28;101667.44;;;8.65;100.00
20696;BME280;10507;52.754;13.040;2023-04-20T07:44:56;101721.56;;;9.00;100.00
20696;BME280;10507;52.754;13.040;2023-04-20T07:47:24;101652.81;;;9.14;100.00
20696;BME280;10507;52.754;13.040;2023-04-20T07:49:51;101625.41;;;9.41;100.00
20696;BME280;10507;52.754;13.040;2023-04-20T07:52:19;101547.22;;;9.42;100.00
20696;BME280;10507;52.754;13.040;2023-04-20T07:54:47;101528.44;;;9.45;100.00
20696;BME280;10507;52.754;13.040;2023-04-20T07:57:15;101498.19;;;9.46;100.00
20696;BME280;10507;52.754;13.040;2023-04-20T07:59:45;101468.72;;;9.50;100.00
20696;BME280;10507;52.754;13.040;2023-04-20T08:02:14;101463.50;;;9.47;100.00
20696;BME280;10507;52.754;13.040;2023-04-20T08:04:42;101475.00;;;9.49;100.00
20696;BME280;10507;52.754;13.040;2023-04-20T08:07:12;101427.84;;;9.51;98.89
20696;BME280;10507;52.754;13.040;2023-04-20T08:09:40;101430.81;;;9.42;99.45
20696;BME280;10507;52.754;13.040;2023-04-20T08:12:08;101328.59;;;9.16;99.33
20696;BME280;10507;52.754;13.040;2023-04-20T08:14:36;101512.47;;;9.45;100.00
20696;BME280;10507;52.754;13.040;2023-04-20T08:17:06;101423.78;;;9.40;98.76
20696;BME280;10507;52.754;13.040;2023-04-20T08:19:34;101459.72;;;9.54;99.16
20696;BME280;10507;52.754;13.040;2023-04-20T08:22:03;101451.63;;;9.57;98.89
20696;BME280;10507;52.754;13.040;2023-04-20T08:24:31;101449.06;;;9.54;99.18
20696;BME280;10507;52.754;13.040;2023-04-20T08:26:59;101425.69;;;9.63;98.64
20696;BME280;10507;52.754;13.040;2023-04-20T08:29:27;101413.88;;;9.70;98.15
20696;BME280;10507;52.754;13.040;2023-04-20T08:31:55;101327.84;;;9.65;97.84
20696;BME280;10507;52.754;13.040;2023-04-20T08:34:24;101339.44;;;9.64;97.36
20696;BME280;10507;52.754;13.040;2023-04-20T08:36:52;101304.28;;;9.52;97.44
20696;BME280;10507;52.754;13.040;2023-04-20T08:39:21;101340.72;;;9.52;97.79
20696;BME280;10507;52.754;13.040;2023-04-20T08:41:49;101353.25;;;9.50;97.76
20696;BME280;10507;52.754;13.040;2023-04-20T08:44:19;101370.16;;;9.49;97.67
20696;BME280;10507;52.754;13.040;2023-04-20T08:46:48;101399.19;;;9.58;97.79
20696;BME280;10507;52.754;13.040;2023-04-20T08:49:18;101350.63;;;9.48;98.50
20696;BME280;10507;52.754;13.040;2023-04-20T08:51:48;101353.00;;;9.31;98.53
20696;BME280;10507;52.754;13.040;2023-04-20T08:54:17;101402.41;;;9.41;98.47
20696;BME280;10507;52.754;13.040;2023-04-20T08:56:46;101332.66;;;9.28;98.78
20696;BME280;10507;52.754;13.040;2023-04-20T08:59:14;101421.00;;;9.43;99.02
20696;BME280;10507;52.754;13.040;2023-04-20T09:01:43;101314.19;;;8.95;99.92
20696;BME280;10507;52.754;13.040;2023-04-20T09:04:15;101421.44;;;9.01;100.00
20696;BME280;10507;52.754;13.040;2023-04-20T09:06:46;101469.38;;;9.02;100.00
20696;BME280;10507;52.754;13.040;2023-04-20T09:09:17;101509.28;;;9.04;100.00
20696;BME280;10507;52.754;13.040;2023-04-20T09:11:45;101551.09;;;9.00;100.00
20696;BME280;10507;52.754;13.040;2023-04-20T09:14:14;101546.56;;;9.04;100.00
20696;BME280;10507;52.754;13.040;2023-04-20T09:16:50;101564.19;;;9.08;100.00
20696;BME280;10507;52.754;13.040;2023-04-20T09:19:22;101610.84;;;9.23;100.00
20696;BME280;10507;52.754;13.040;2023-04-20T09:21:51;101578.06;;;9.19;100.00
20696;BME280;10507;52.754;13.040;2023-04-20T09:24:22;101537.53;;;9.08;100.00
20696;BME280;10507;52.754;13.040;2023-04-20T09:26:50;101516.63;;;8.95;100.00
20696;BME280;10507;52.754;13.040;2023-04-20T09:29:20;101567.94;;;9.01;100.00
20696;BME280;10507;52.754;13.040;2023-04-20T09:31:48;101548.19;;;8.78;100.00
20696;BME280;10507;52.754;13.040;2023-04-20T09:34:16;101624.03;;;8.94;100.00
20696;BME280;10507;52.754;13.040;2023-04-20T09:36:46;101678.88;;;9.03;100.00
20696;BME280;10507;52.754;13.040;2023-04-20T09:39:17;101684.00;;;9.11;100.00
20696;BME280;10507;52.754;13.040;2023-04-20T09:41:47;101699.59;;;9.25;100.00
20696;BME280;10507;52.754;13.040;2023-04-20T09:44:16;101735.63;;;9.40;100.00
20696;BME280;10507;52.754;13.040;2023-04-20T09:46:45;101764.88;;;9.74;100.00
20696;BME280;10507;52.754;13.040;2023-04-20T09:49:13;101711.00;;;9.91;100.00
20696;BME280;10507;52.754;13.040;2023-04-20T09:51:42;101740.13;;;10.28;100.00
20696;BME280;10507;52.754;13.040;2023-04-20T09:54:12;101559.88;;;10.18;100.00
20696;BME280;10507;52.754;13.040;2023-04-20T09:56:41;101678.13;;;10.48;100.00
20696;BME280;10507;52.754;13.040;2023-04-20T09:59:11;101694.69;;;10.85;100.00
20696;BME280;10507;52.754;13.040;2023-04-20T10:01:39;101529.19;;;10.81;98.51
20696;BME280;10507;52.754;13.040;2023-04-20T10:04:08;101421.63;;;10.53;98.64
20696;BME280;10507;52.754;13.040;2023-04-20T10:06:38;101627.03;;;11.09;99.42
20696;BME280;10507;52.754;13.040;2023-04-20T10:09:06;101480.63;;;11.17;96.10
20696;BME280;10507;52.754;13.040;2023-04-20T10:11:35;101537.53;;;11.43;97.22
20696;BME280;10507;52.754;13.040;2023-04-20T10:14:21;101511.22;;;11.76;94.64
20696;BME280;10507;52.754;13.040;2023-04-20T10:16:58;101383.63;;;11.78;93.87
20696;BME280;10507;52.754;13.040;2023-04-20T10:19:36;101365.59;;;12.04;92.89
20696;BME280;10507;52.754;13.040;2023-04-20T10:22:05;101176.16;;;11.71;93.15
20696;BME280;10507;52.754;13.040;2023-04-20T10:24:33;101423.31;;;12.10;93.17
20696;BME280;10507;52.754;13.040;2023-04-20T10:27:04;101350.13;;;11.90;93.37
20696;BME280;10507;52.754;13.040;2023-04-20T10:29:43;101270.22;;;11.81;92.71
20696;BME280;10507;52.754;13.040;2023-04-20T10:32:20;101471.41;;;12.52;92.51
20696;BME280;10507;52.754;13.040;2023-04-20T10:34:59;101287.53;;;12.32;92.05
20696;BME280;10507;52.754;13.040;2023-04-20T10:37:28;101273.72;;;12.41;91.15
20696;BME280;10507;52.754;13.040;2023-04-20T10:39:57;101207.63;;;12.42;90.08
20696;BME280;10507;52.754;13.040;2023-04-20T10:42:25;101455.69;;;13.03;91.49
20696;BME280;10507;52.754;13.040;2023-04-20T10:44:56;101298.69;;;12.97;91.29
20696;BME280;10507;52.754;13.040;2023-04-20T10:47:28;101112.03;;;12.61;89.90
20696;BME280;10507;52.754;13.040;2023-04-20T10:50:05;101381.44;;;13.22;90.18
20696;BME280;10507;52.754;13.040;2023-04-20T10:52:35;101200.75;;;13.25;87.96
20696;BME280;10507;52.754;13.040;2023-04-20T10:55:04;100987.38;;;13.05;87.21
20696;BME280;10507;52.754;13.040;2023-04-20T10:57:35;101113.13;;;12.75;89.26
20696;BME280;10507;52.754;13.040;2023-04-20T11:00:14;101251.44;;;12.77;91.13
20696;BME280;10507;52.754;13.040;2023-04-20T11:02:47;101186.47;;;12.55;91.94
20696;BME280;10507;52.754;13.040;2023-04-20T11:05:16;101161.75;;;12.31;92.42
20696;BME280;10507;52.754;13.040;2023-04-20T11:07:55;101241.38;;;12.27;93.75
20696;BME280;10507;52.754;13.040;2023-04-20T11:10:37;101253.22;;;12.21;94.22
20696;BME280;10507;52.754;13.040;2023-04-20T11:13:05;101293.75;;;12.33;94.05
20696;BME280;10507;52.754;13.040;2023-04-20T11:15:35;101316.06;;;12.52;94.21
20696;BME280;10507;52.754;13.040;2023-04-20T11:18:06;101321.44;;;12.88;92.42
20696;BME280;10507;52.754;13.040;2023-04-20T11:20:34;101273.34;;;13.22;90.74
20696;BME280;10507;52.754;13.040;2023-04-20T11:23:02;101347.25;;;13.27;91.44
20696;BME280;10507;52.754;13.040;2023-04-20T11:25:31;101305.75;;;13.17;91.74
20696;BME280;10507;52.754;13.040;2023-04-20T11:28:04;101226.03;;;13.21;90.17
20696;BME280;10507;52.754;13.040;2023-04-20T11:30:38;101095.88;;;12.80;91.72
20696;BME280;10507;52.754;13.040;2023-04-20T11:33:07;101133.47;;;12.61;92.69
20696;BME280;10507;52.754;13.040;2023-04-20T11:35:36;101050.25;;;12.30;92.62
20696;BME280;10507;52.754;13.040;2023-04-20T11:38:05;101194.69;;;12.33;93.79
20696;BME280;10507;52.754;13.040;2023-04-20T11:40:33;101191.94;;;12.34;93.69
20696;BME280;10507;52.754;13.040;2023-04-20T11:43:01;101216.91;;;12.35;93.93
20696;BME280;10507;52.754;13.040;2023-04-20T11:45:31;101349.44;;;12.64;95.02
20696;BME280;10507;52.754;13.040;2023-04-20T11:48:04;101414.03;;;13.15;94.30
20696;BME280;10507;52.754;13.040;2023-04-20T11:50:32;101246.41;;;12.88;93.63
20696;BME280;10507;52.754;13.040;2023-04-20T11:53:00;101212.66;;;12.84;93.33
20696;BME280;10507;52.754;13.040;2023-04-20T11:55:28;101137.25;;;12.75;93.14
20696;BME280;10507;52.754;13.040;2023-04-20T11:57:56;101355.59;;;13.21;93.60
20696;BME280;10507;52.754;13.040;2023-04-20T12:00:24;101206.47;;;13.01;93.00
20696;BME280;10507;52.754;13.040;2023-04-20T12:02:52;101254.63;;;13.20;92.58
20696;BME280;10507;52.754;13.040;2023-04-20T12:05:21;101108.06;;;12.86;92.25
20696;BME280;10507;52.754;13.040;2023-04-20T12:07:49;101183.75;;;12.91;93.30
20696;BME280;10507;52.754;13.040;2023-04-20T12:10:17;101272.38;;;13.05;93.88
20696;BME280;10507;52.754;13.040;2023-04-20T12:12:45;101197.63;;;12.99;93.22
20696;BME280;10507;52.754;13.040;2023-04-20T12:15:13;101187.22;;;13.10;92.29
20696;BME280;10507;52.754;13.040;2023-04-20T12:17:41;101136.66;;;13.20;91.53
20696;BME280;10507;52.754;13.040;2023-04-20T12:20:09;101024.03;;;13.20;89.47
20696;BME280;10507;52.754;13.040;2023-04-20T12:22:39;101032.22;;;13.35;88.94
20696;BME280;10507;52.754;13.040;2023-04-20T12:25:07;101133.66;;;13.60;89.84
20696;BME280;10507;52.754;13.040;2023-04-20T12:27:35;101180.59;;;13.68;91.00
20696;BME280;10507;52.754;13.040;2023-04-20T12:30:04;101018.63;;;13.54;89.49
20696;BME280;10507;52.754;13.040;2023-04-20T12:32:33;101148.06;;;13.75;89.73
20696;BME280;10507;52.754;13.040;2023-04-20T12:35:01;100996.03;;;13.73;87.97
20696;BME280;10507;52.754;13.040;2023-04-20T12:37:29;101000.56;;;14.03;86.66
20696;BME280;10507;52.754;13.040;2023-04-20T12:39:59;100871.81;;;13.71;86.69
20696;BME280;10507;52.754;13.040;2023-04-20T12:42:27;100957.31;;;13.93;86.45
20696;BME280;10507;52.754;13.040;2023-04-20T12:44:54;100998.31;;;14.11;86.73
20696;BME280;10507;52.754;13.040;2023-04-20T12:47:22;100930.94;;;13.86;87.66
20696;BME280;10507;52.754;13.040;2023-04-20T12:49:50;101009.41;;;14.05;87.46